sensor_id;sensor_type;location;lat;lon;timestamp;pressure;altitude;pressure_sealevel;temperature;humidity
72857;BME280;62742;52.136;4.500;2023-04-04T00:01:40;103141.28;;;3.54;68.00
72857;BME280;62742;52.136;4.500;2023-04-04T00:04:06;103144.41;;;3.47;68.49
72857;BME280;62742;52.136;4.500;2023-04-04T00:06:33;103147.09;;;3.49;67.46
72857;BME280;62742;52.136;4.500;2023-04-04T00:08:59;103153.44;;;3.37;68.72
72857;BME280;62742;52.136;4.500;2023-04-04T00:11:25;103143.78;;;3.35;68.45
72857;BME280;62742;52.136;4.500;2023-04-04T00:13:51;103132.63;;;3.54;67.77
72857;BME280;62742;52.136;4.500;2023-04-04T00:16:18;103137.22;;;3.25;68.86
72857;BME280;62742;52.136;4.500;2023-04-04T00:18:44;103135.84;;;3.15;68.96
72857;BME280;62742;52.136;4.500;2023-04-04T00:21:10;103139.41;;;3.17;68.43
72857;BME280;62742;52.136;4.500;2023-04-04T00:23:37;103136.97;;;2.88;71.65
72857;BME280;62742;52.136;4.500;2023-04-04T00:26:03;103130.47;;;3.12;69.63
72857;BME280;62742;52.136;4.500;2023-04-04T00:28:29;103129.03;;;2.85;71.13
72857;BME280;62742;52.136;4.500;2023-04-04T00:30:55;103129.16;;;2.55;74.75
72857;BME280;62742;52.136;4.500;2023-04-04T00:33:22;103136.97;;;2.55;74.79
72857;BME280;62742;52.136;4.500;2023-04-04T00:35:48;103151.25;;;2.63;73.22
72857;BME280;62742;52.136;4.500;2023-04-04T00:38:14;103147.00;;;2.49;73.68
72857;BME280;62742;52.136;4.500;2023-04-04T00:40:41;103142.59;;;2.48;71.71
72857;BME280;62742;52.136;4.500;2023-04-04T00:43:10;103141.25;;;2.71;70.38
72857;BME280;62742;52.136;4.500;2023-04-04T00:45:37;103138.97;;;2.60;70.80
72857;BME280;62742;52.136;4.500;2023-04-04T00:48:03;103140.22;;;2.67;69.96
72857;BME280;62742;52.136;4.500;2023-04-04T00:50:29;103134.78;;;2.79;69.26
72857;BME280;62742;52.136;4.500;2023-04-04T00:52:57;103138.00;;;2.58;70.61
72857;BME280;62742;52.136;4.500;2023-04-04T00:55:23;103139.59;;;2.40;72.22
72857;BME280;62742;52.136;4.500;2023-04-04T00:57:51;103137.28;;;2.61;69.68
72857;BME280;62742;52.136;4.500;2023-04-04T01:00:17;103142.00;;;2.68;69.41
72857;BME280;62742;52.136;4.500;2023-04-04T01:02:44;103133.09;;;2.63;70.23
72857;BME280;62742;52.136;4.500;2023-04-04T01:05:11;103124.72;;;2.69;70.66
72857;BME280;62742;52.136;4.500;2023-04-04T01:07:37;103125.44;;;2.50;71.33
72857;BME280;62742;52.136;4.500;2023-04-04T01:10:04;103126.72;;;2.41;71.56
72857;BME280;62742;52.136;4.500;2023-04-04T01:12:31;103121.16;;;2.35;71.54
72857;BME280;62742;52.136;4.500;2023-04-04T01:14:57;103127.41;;;2.39;72.49
72857;BME280;62742;52.136;4.500;2023-04-04T01:17:23;103119.69;;;2.24;76.05
72857;BME280;62742;52.136;4.500;2023-04-04T01:22:29;103120.81;;;1.98;77.12
72857;BME280;62742;52.136;4.500;2023-04-04T01:24:57;103114.28;;;2.04;75.85
72857;BME280;62742;52.136;4.500;2023-04-04T01:27:25;103112.66;;;2.06;74.00
72857;BME280;62742;52.136;4.500;2023-04-04T01:29:51;103113.91;;;2.13;72.78
72857;BME280;62742;52.136;4.500;2023-04-04T01:32:19;103110.81;;;1.89;73.98
72857;BME280;62742;52.136;4.500;2023-04-04T01:37:26;103115.50;;;2.11;73.47
72857;BME280;62742;52.136;4.500;2023-04-04T01:40:00;103111.88;;;1.93;74.85
72857;BME280;62742;52.136;4.500;2023-04-04T01:42:33;103121.09;;;1.87;75.44
72857;BME280;62742;52.136;4.500;2023-04-04T01:45:00;103116.56;;;1.68;77.45
72857;BME280;62742;52.136;4.500;2023-04-04T01:47:27;103119.41;;;1.88;74.07
72857;BME280;62742;52.136;4.500;2023-04-04T01:49:54;103119.34;;;1.72;75.16
72857;BME280;62742;52.136;4.500;2023-04-04T01:52:20;103129.16;;;1.92;74.01
72857;BME280;62742;52.136;4.500;2023-04-04T01:54:46;103133.34;;;1.90;74.28
72857;BME280;62742;52.136;4.500;2023-04-04T01:57:12;103125.38;;;2.02;73.31
72857;BME280;62742;52.136;4.500;2023-04-04T01:59:39;103120.03;;;1.99;73.89
72857;BME280;62742;52.136;4.500;2023-04-04T02:02:05;103123.03;;;2.06;74.02
72857;BME280;62742;52.136;4.500;2023-04-04T02:04:31;103125.38;;;2.02;73.53
72857;BME280;62742;52.136;4.500;2023-04-04T02:06:58;103122.72;;;1.71;75.47
72857;BME280;62742;52.136;4.500;2023-04-04T02:09:24;103122.47;;;1.51;76.40
72857;BME280;62742;52.136;4.500;2023-04-04T02:11:51;103126.22;;;1.71;75.29
72857;BME280;62742;52.136;4.500;2023-04-04T02:14:17;103131.84;;;1.49;76.47
72857;BME280;62742;52.136;4.500;2023-04-04T02:16:44;103132.38;;;1.73;74.76
72857;BME280;62742;52.136;4.500;2023-04-04T02:19:11;103129.19;;;1.62;75.41
72857;BME280;62742;52.136;4.500;2023-04-04T02:21:38;103130.66;;;1.74;74.69
72857;BME280;62742;52.136;4.500;2023-04-04T02:24:04;103131.41;;;1.56;76.95
72857;BME280;62742;52.136;4.500;2023-04-04T02:26:30;103125.50;;;1.44;78.11
72857;BME280;62742;52.136;4.500;2023-04-04T02:28:57;103126.91;;;1.68;76.18
72857;BME280;62742;52.136;4.500;2023-04-04T02:31:24;103121.66;;;1.52;76.57
72857;BME280;62742;52.136;4.500;2023-04-04T02:33:50;103127.56;;;1.64;77.71
72857;BME280;62742;52.136;4.500;2023-04-04T02:36:16;103114.97;;;1.41;79.59
72857;BME280;62742;52.136;4.500;2023-04-04T02:38:42;103112.00;;;1.35;82.41
72857;BME280;62742;52.136;4.500;2023-04-04T02:41:09;103120.66;;;1.20;82.39
72857;BME280;62742;52.136;4.500;2023-04-04T02:43:35;103114.75;;;1.23;82.15
72857;BME280;62742;52.136;4.500;2023-04-04T02:46:02;103112.50;;;1.14;81.74
72857;BME280;62742;52.136;4.500;2023-04-04T02:48:28;103109.47;;;1.06;82.25
72857;BME280;62742;52.136;4.500;2023-04-04T02:50:54;103115.00;;;0.98;82.39
72857;BME280;62742;52.136;4.500;2023-04-04T02:53:21;103110.50;;;0.95;85.64
72857;BME280;62742;52.136;4.500;2023-04-04T02:55:47;103111.03;;;0.89;86.20
72857;BME280;62742;52.136;4.500;2023-04-04T02:58:13;103107.28;;;0.84;84.95
72857;BME280;62742;52.136;4.500;2023-04-04T03:00:40;103103.81;;;0.84;83.79
72857;BME280;62742;52.136;4.500;2023-04-04T03:03:06;103102.53;;;0.77;83.66
72857;BME280;62742;52.136;4.500;2023-04-04T03:05:32;103112.88;;;0.77;83.83
72857;BME280;62742;52.136;4.500;2023-04-04T03:07:59;103100.09;;;0.80;83.98
72857;BME280;62742;52.136;4.500;2023-04-04T03:10:26;103098.94;;;0.75;84.01
72857;BME280;62742;52.136;4.500;2023-04-04T03:12:54;103107.72;;;0.92;82.83
72857;BME280;62742;52.136;4.500;2023-04-04T03:15:21;103106.28;;;0.82;82.75
72857;BME280;62742;52.136;4.500;2023-04-04T03:17:48;103109.22;;;0.88;82.75
72857;BME280;62742;52.136;4.500;2023-04-04T03:20:14;103112.06;;;0.78;82.78
72857;BME280;62742;52.136;4.500;2023-04-04T03:22:41;103117.28;;;0.65;84.12
72857;BME280;62742;52.136;4.500;2023-04-04T03:25:07;103111.88;;;0.75;84.89
72857;BME280;62742;52.136;4.500;2023-04-04T03:27:34;103116.25;;;0.76;83.75
72857;BME280;62742;52.136;4.500;2023-04-04T03:30:00;103117.75;;;0.72;84.13
72857;BME280;62742;52.136;4.500;2023-04-04T03:32:27;103111.47;;;0.82;84.03
72857;BME280;62742;52.136;4.500;2023-04-04T03:34:53;103118.06;;;0.77;82.90
72857;BME280;62742;52.136;4.500;2023-04-04T03:37:19;103113.66;;;0.76;83.75
72857;BME280;62742;52.136;4.500;2023-04-04T03:39:47;103117.03;;;0.75;84.16
72857;BME280;62742;52.136;4.500;2023-04-04T03:42:13;103124.34;;;0.67;84.88
72857;BME280;62742;52.136;4.500;2023-04-04T03:44:41;103125.53;;;0.72;84.65
72857;BME280;62742;52.136;4.500;2023-04-04T03:47:07;103126.63;;;0.63;84.83
72857;BME280;62742;52.136;4.500;2023-04-04T03:49:33;103116.47;;;0.66;85.88
72857;BME280;62742;52.136;4.500;2023-04-04T03:52:00;103120.38;;;0.59;85.06
72857;BME280;62742;52.136;4.500;2023-04-04T03:54:27;103117.00;;;0.60;85.14
72857;BME280;62742;52.136;4.500;2023-04-04T03:56:54;103116.81;;;0.57;86.86
72857;BME280;62742;52.136;4.500;2023-04-04T03:59:22;103115.00;;;0.56;86.87
72857;BME280;62742;52.136;4.500;2023-04-04T04:01:48;103114.13;;;0.55;86.71
72857;BME280;62742;52.136;4.500;2023-04-04T04:04:15;103112.41;;;0.56;87.30
72857;BME280;62742;52.136;4.500;2023-04-04T04:06:41;103111.75;;;0.45;87.64
72857;BME280;62742;52.136;4.500;2023-04-04T04:09:08;103108.00;;;0.40;87.30
72857;BME280;62742;52.136;4.500;2023-04-04T04:11:36;103115.56;;;0.37;87.79
72857;BME280;62742;52.136;4.500;2023-04-04T04:14:03;103118.03;;;0.35;85.98
72857;BME280;62742;52.136;4.500;2023-04-04T04:16:29;103110.06;;;0.32;87.23
72857;BME280;62742;52.136;4.500;2023-04-04T04:18:55;103113.69;;;0.34;86.21
72857;BME280;62742;52.136;4.500;2023-04-04T04:21:21;103114.25;;;0.30;87.00
72857;BME280;62742;52.136;4.500;2023-04-04T04:23:47;103112.88;;;0.22;87.11
72857;BME280;62742;52.136;4.500;2023-04-04T04:26:14;103116.19;;;0.20;88.04
72857;BME280;62742;52.136;4.500;2023-04-04T04:28:40;103116.97;;;0.18;88.83
72857;BME280;62742;52.136;4.500;2023-04-04T04:31:07;103112.00;;;0.22;89.29
72857;BME280;62742;52.136;4.500;2023-04-04T04:33:35;103108.81;;;0.26;90.01
72857;BME280;62742;52.136;4.500;2023-04-04T04:36:03;103118.16;;;0.24;90.04
72857;BME280;62742;52.136;4.500;2023-04-04T04:38:31;103116.28;;;0.21;89.00
72857;BME280;62742;52.136;4.500;2023-04-04T04:40:57;103119.28;;;0.14;88.56
72857;BME280;62742;52.136;4.500;2023-04-04T04:43:25;103118.34;;;0.13;89.29
72857;BME280;62742;52.136;4.500;2023-04-04T04:45:52;103123.34;;;0.10;89.44
72857;BME280;62742;52.136;4.500;2023-04-04T04:48:18;103120.56;;;0.07;89.37
72857;BME280;62742;52.136;4.500;2023-04-04T04:50:45;103122.44;;;0.10;90.69
72857;BME280;62742;52.136;4.500;2023-04-04T04:53:14;103123.53;;;0.13;90.63
72857;BME280;62742;52.136;4.500;2023-04-04T04:55:41;103110.72;;;0.15;90.81
72857;BME280;62742;52.136;4.500;2023-04-04T04:58:11;103111.41;;;0.12;91.22
72857;BME280;62742;52.136;4.500;2023-04-04T05:00:37;103125.13;;;0.11;89.74
72857;BME280;62742;52.136;4.500;2023-04-04T05:03:03;103127.91;;;0.01;89.38
72857;BME280;62742;52.136;4.500;2023-04-04T05:05:33;103122.94;;;0.04;89.10
72857;BME280;62742;52.136;4.500;2023-04-04T05:08:00;103125.53;;;0.04;90.54
72857;BME280;62742;52.136;4.500;2023-04-04T05:10:27;103131.09;;;-0.03;90.32
72857;BME280;62742;52.136;4.500;2023-04-04T05:12:55;103135.34;;;-0.04;90.21
72857;BME280;62742;52.136;4.500;2023-04-04T05:15:22;103139.06;;;0.00;90.01
72857;BME280;62742;52.136;4.500;2023-04-04T05:17:50;103140.03;;;-0.11;90.05
72857;BME280;62742;52.136;4.500;2023-04-04T05:20:17;103145.53;;;-0.07;91.08
72857;BME280;62742;52.136;4.500;2023-04-04T05:22:43;103142.53;;;0.01;91.13
72857;BME280;62742;52.136;4.500;2023-04-04T05:25:10;103150.41;;;0.02;90.48
72857;BME280;62742;52.136;4.500;2023-04-04T05:27:37;103148.09;;;-0.07;90.88
72857;BME280;62742;52.136;4.500;2023-04-04T05:30:03;103151.56;;;-0.06;91.31
72857;BME280;62742;52.136;4.500;2023-04-04T05:32:30;103140.53;;;-0.04;91.67
72857;BME280;62742;52.136;4.500;2023-04-04T05:34:57;103154.16;;;0.07;90.96
72857;BME280;62742;52.136;4.500;2023-04-04T05:37:23;103149.47;;;0.02;91.00
72857;BME280;62742;52.136;4.500;2023-04-04T05:39:49;103148.78;;;0.04;91.14
72857;BME280;62742;52.136;4.500;2023-04-04T05:42:15;103151.97;;;0.13;91.92
72857;BME280;62742;52.136;4.500;2023-04-04T05:44:42;103148.19;;;0.35;90.57
72857;BME280;62742;52.136;4.500;2023-04-04T05:47:09;103143.47;;;0.43;90.05
72857;BME280;62742;52.136;4.500;2023-04-04T05:49:35;103146.56;;;0.50;89.18
72857;BME280;62742;52.136;4.500;2023-04-04T05:52:01;103147.25;;;0.48;88.55
72857;BME280;62742;52.136;4.500;2023-04-04T05:54:27;103143.19;;;0.51;88.38
72857;BME280;62742;52.136;4.500;2023-04-04T05:56:54;103138.69;;;0.62;87.71
72857;BME280;62742;52.136;4.500;2023-04-04T05:59:20;103135.69;;;0.69;87.31
72857;BME280;62742;52.136;4.500;2023-04-04T06:01:46;103129.19;;;0.76;87.07
72857;BME280;62742;52.136;4.500;2023-04-04T06:04:13;103131.69;;;1.03;86.65
72857;BME280;62742;52.136;4.500;2023-04-04T06:06:39;103132.19;;;1.25;85.54
72857;BME280;62742;52.136;4.500;2023-04-04T06:09:05;103136.84;;;1.46;84.22
72857;BME280;62742;52.136;4.500;2023-04-04T06:11:32;103126.03;;;1.53;83.31
72857;BME280;62742;52.136;4.500;2023-04-04T06:13:58;103132.00;;;1.82;82.18
72857;BME280;62742;52.136;4.500;2023-04-04T06:16:25;103136.84;;;2.22;79.42
72857;BME280;62742;52.136;4.500;2023-04-04T06:18:51;103134.97;;;2.51;78.42
72857;BME280;62742;52.136;4.500;2023-04-04T06:21:17;103138.03;;;3.08;76.47
72857;BME280;62742;52.136;4.500;2023-04-04T06:23:43;103134.56;;;2.91;75.48
72857;BME280;62742;52.136;4.500;2023-04-04T06:26:10;103142.19;;;3.04;75.22
72857;BME280;62742;52.136;4.500;2023-04-04T06:28:37;103135.34;;;3.23;74.88
72857;BME280;62742;52.136;4.500;2023-04-04T06:31:11;103135.31;;;3.55;74.08
72857;BME280;62742;52.136;4.500;2023-04-04T06:33:37;103132.28;;;3.82;71.97
72857;BME280;62742;52.136;4.500;2023-04-04T06:36:03;103129.31;;;4.10;72.51
72857;BME280;62742;52.136;4.500;2023-04-04T06:38:30;103125.78;;;4.46;69.00
72857;BME280;62742;52.136;4.500;2023-04-04T06:40:56;103115.28;;;4.82;68.58
72857;BME280;62742;52.136;4.500;2023-04-04T06:43:22;103121.03;;;4.94;65.46
72857;BME280;62742;52.136;4.500;2023-04-04T06:45:48;103111.38;;;5.32;66.98
72857;BME280;62742;52.136;4.500;2023-04-04T06:48:15;103110.03;;;5.83;64.58
72857;BME280;62742;52.136;4.500;2023-04-04T06:50:41;103110.50;;;6.39;60.72
72857;BME280;62742;52.136;4.500;2023-04-04T06:53:08;103112.16;;;6.59;59.94
72857;BME280;62742;52.136;4.500;2023-04-04T06:55:34;103112.22;;;6.85;57.61
72857;BME280;62742;52.136;4.500;2023-04-04T06:58:00;103109.84;;;7.15;58.33
72857;BME280;62742;52.136;4.500;2023-04-04T07:00:27;103118.38;;;6.85;57.15
72857;BME280;62742;52.136;4.500;2023-04-04T07:02:56;103116.63;;;7.10;55.91
72857;BME280;62742;52.136;4.500;2023-04-04T07:05:26;103107.28;;;7.17;55.35
72857;BME280;62742;52.136;4.500;2023-04-04T07:07:53;103112.69;;;7.47;52.75
72857;BME280;62742;52.136;4.500;2023-04-04T07:10:22;103118.72;;;7.72;52.76
72857;BME280;62742;52.136;4.500;2023-04-04T07:12:49;103130.63;;;7.12;53.79
72857;BME280;62742;52.136;4.500;2023-04-04T07:15:16;103129.31;;;6.99;54.08
72857;BME280;62742;52.136;4.500;2023-04-04T07:17:42;103130.75;;;6.91;54.74
72857;BME280;62742;52.136;4.500;2023-04-04T07:20:08;103143.72;;;7.62;54.50
72857;BME280;62742;52.136;4.500;2023-04-04T07:22:39;103135.09;;;8.19;54.67
72857;BME280;62742;52.136;4.500;2023-04-04T07:25:06;103136.94;;;8.79;50.52
72857;BME280;62742;52.136;4.500;2023-04-04T07:27:33;103134.53;;;8.29;49.04
72857;BME280;62742;52.136;4.500;2023-04-04T07:30:00;103137.56;;;8.70;51.43
72857;BME280;62742;52.136;4.500;2023-04-04T07:32:28;103130.16;;;8.01;52.82
72857;BME280;62742;52.136;4.500;2023-04-04T07:34:54;103130.53;;;8.69;50.13
72857;BME280;62742;52.136;4.500;2023-04-04T07:37:20;103137.44;;;8.10;51.15
72857;BME280;62742;52.136;4.500;2023-04-04T07:39:46;103132.13;;;8.35;52.67
72857;BME280;62742;52.136;4.500;2023-04-04T07:42:15;103136.34;;;8.30;51.75
72857;BME280;62742;52.136;4.500;2023-04-04T07:44:48;103137.13;;;8.28;53.29
72857;BME280;62742;52.136;4.500;2023-04-04T07:47:15;103126.25;;;8.42;51.14
72857;BME280;62742;52.136;4.500;2023-04-04T07:49:41;103129.34;;;8.88;48.54
72857;BME280;62742;52.136;4.500;2023-04-04T07:52:08;103123.84;;;9.11;50.35
72857;BME280;62742;52.136;4.500;2023-04-04T07:54:34;103130.66;;;9.36;49.03
72857;BME280;62742;52.136;4.500;2023-04-04T07:57:01;103123.00;;;9.80;50.71
72857;BME280;62742;52.136;4.500;2023-04-04T07:59:33;103117.66;;;10.12;47.19
72857;BME280;62742;52.136;4.500;2023-04-04T08:01:59;103114.94;;;10.09;48.13
72857;BME280;62742;52.136;4.500;2023-04-04T08:04:25;103113.38;;;10.17;47.84
72857;BME280;62742;52.136;4.500;2023-04-04T08:06:52;103106.72;;;10.71;46.69
72857;BME280;62742;52.136;4.500;2023-04-04T08:09:18;103111.06;;;10.71;44.89
72857;BME280;62742;52.136;4.500;2023-04-04T08:11:44;103109.97;;;10.21;45.83
72857;BME280;62742;52.136;4.500;2023-04-04T08:14:10;103107.97;;;10.11;46.92
72857;BME280;62742;52.136;4.500;2023-04-04T08:16:38;103106.88;;;10.80;46.63
72857;BME280;62742;52.136;4.500;2023-04-04T08:19:04;103107.63;;;10.32;45.65
72857;BME280;62742;52.136;4.500;2023-04-04T08:21:32;103115.88;;;10.49;47.14
72857;BME280;62742;52.136;4.500;2023-04-04T08:23:58;103102.47;;;11.25;45.86
72857;BME280;62742;52.136;4.500;2023-04-04T08:26:25;103097.56;;;11.45;44.68
72857;BME280;62742;52.136;4.500;2023-04-04T08:28:51;103089.91;;;11.10;42.88
72857;BME280;62742;52.136;4.500;2023-04-04T08:31:17;103095.81;;;11.46;44.11
72857;BME280;62742;52.136;4.500;2023-04-04T08:33:43;103094.09;;;11.46;43.54
72857;BME280;62742;52.136;4.500;2023-04-04T08:36:10;103092.56;;;11.60;43.14
72857;BME280;62742;52.136;4.500;2023-04-04T08:38:36;103098.16;;;11.81;43.51
72857;BME280;62742;52.136;4.500;2023-04-04T08:41:03;103087.13;;;12.05;41.53
72857;BME280;62742;52.136;4.500;2023-04-04T08:43:30;103082.59;;;11.94;40.62
72857;BME280;62742;52.136;4.500;2023-04-04T08:46:00;103089.94;;;11.62;42.76
72857;BME280;62742;52.136;4.500;2023-04-04T08:48:29;103096.78;;;12.06;39.57
72857;BME280;62742;52.136;4.500;2023-04-04T08:50:57;103089.47;;;11.88;38.88
72857;BME280;62742;52.136;4.500;2023-04-04T08:53:25;103086.94;;;10.92;37.56
72857;BME280;62742;52.136;4.500;2023-04-04T08:55:54;103085.88;;;11.83;36.46
72857;BME280;62742;52.136;4.500;2023-04-04T08:58:22;103095.25;;;10.69;35.99
72857;BME280;62742;52.136;4.500;2023-04-04T09:00:51;103095.09;;;9.84;40.15
72857;BME280;62742;52.136;4.500;2023-04-04T09:03:25;103091.75;;;10.69;38.72
72857;BME280;62742;52.136;4.500;2023-04-04T09:05:53;103083.00;;;10.70;38.80
72857;BME280;62742;52.136;4.500;2023-04-04T09:08:21;103088.72;;;10.93;41.93
72857;BME280;62742;52.136;4.500;2023-04-04T09:10:51;103081.59;;;11.34;38.09
72857;BME280;62742;52.136;4.500;2023-04-04T09:13:18;103083.13;;;11.23;38.77
72857;BME280;62742;52.136;4.500;2023-04-04T09:15:45;103088.81;;;11.48;37.26
72857;BME280;62742;52.136;4.500;2023-04-04T09:18:14;103090.78;;;11.09;37.39
72857;BME280;62742;52.136;4.500;2023-04-04T09:20:41;103093.00;;;10.45;37.68
72857;BME280;62742;52.136;4.500;2023-04-04T09:23:14;103087.66;;;10.42;37.70
72857;BME280;62742;52.136;4.500;2023-04-04T09:25:45;103080.84;;;10.94;37.50
72857;BME280;62742;52.136;4.500;2023-04-04T09:28:14;103080.84;;;10.50;39.16
72857;BME280;62742;52.136;4.500;2023-04-04T09:30:41;103078.84;;;11.28;39.28
72857;BME280;62742;52.136;4.500;2023-04-04T09:33:08;103085.00;;;11.82;37.02
72857;BME280;62742;52.136;4.500;2023-04-04T09:35:37;103080.03;;;11.47;35.62
72857;BME280;62742;52.136;4.500;2023-04-04T09:38:06;103081.16;;;11.63;37.03
72857;BME280;62742;52.136;4.500;2023-04-04T09:40:36;103085.31;;;12.02;35.33
72857;BME280;62742;52.136;4.500;2023-04-04T09:43:03;103078.22;;;11.43;36.70
72857;BME280;62742;52.136;4.500;2023-04-04T09:45:33;103083.13;;;10.76;38.49
72857;BME280;62742;52.136;4.500;2023-04-04T09:48:01;103076.28;;;11.31;37.86
72857;BME280;62742;52.136;4.500;2023-04-04T09:50:27;103077.84;;;11.75;37.33
72857;BME280;62742;52.136;4.500;2023-04-04T09:52:55;103073.81;;;11.94;35.65
72857;BME280;62742;52.136;4.500;2023-04-04T09:55:30;103072.66;;;11.79;37.58
72857;BME280;62742;52.136;4.500;2023-04-04T09:58:02;103072.00;;;11.91;37.23
72857;BME280;62742;52.136;4.500;2023-04-04T10:00:40;103064.59;;;11.69;38.99
72857;BME280;62742;52.136;4.500;2023-04-04T10:03:15;103073.31;;;12.20;37.67
72857;BME280;62742;52.136;4.500;2023-04-04T10:05:43;103078.88;;;12.44;37.53
72857;BME280;62742;52.136;4.500;2023-04-04T10:08:14;103077.16;;;12.46;36.43
72857;BME280;62742;52.136;4.500;2023-04-04T10:10:49;103067.91;;;12.84;35.66
72857;BME280;62742;52.136;4.500;2023-04-04T10:13:21;103078.66;;;12.27;35.46
72857;BME280;62742;52.136;4.500;2023-04-04T10:15:50;103065.22;;;12.78;36.29
72857;BME280;62742;52.136;4.500;2023-04-04T10:18:18;103074.09;;;12.87;36.64
72857;BME280;62742;52.136;4.500;2023-04-04T10:20:48;103080.25;;;12.16;36.51
72857;BME280;62742;52.136;4.500;2023-04-04T10:23:15;103074.88;;;12.08;38.35
72857;BME280;62742;52.136;4.500;2023-04-04T10:25:44;103068.03;;;12.95;35.94
72857;BME280;62742;52.136;4.500;2023-04-04T10:28:11;103066.63;;;12.48;35.67
72857;BME280;62742;52.136;4.500;2023-04-04T10:30:41;103062.41;;;12.61;35.49
72857;BME280;62742;52.136;4.500;2023-04-04T10:33:09;103057.22;;;12.70;38.59
72857;BME280;62742;52.136;4.500;2023-04-04T10:36:11;103058.63;;;12.43;35.57
72857;BME280;62742;52.136;4.500;2023-04-04T10:38:40;103053.91;;;12.88;35.76
72857;BME280;62742;52.136;4.500;2023-04-04T10:41:10;103053.16;;;11.15;37.26
72857;BME280;62742;52.136;4.500;2023-04-04T10:43:39;103052.84;;;11.47;37.03
72857;BME280;62742;52.136;4.500;2023-04-04T10:46:18;103058.13;;;12.03;37.93
72857;BME280;62742;52.136;4.500;2023-04-04T10:48:56;103046.72;;;12.06;37.64
72857;BME280;62742;52.136;4.500;2023-04-04T10:51:24;103037.00;;;12.72;34.63
72857;BME280;62742;52.136;4.500;2023-04-04T10:53:51;103032.91;;;12.22;36.10
72857;BME280;62742;52.136;4.500;2023-04-04T10:56:18;103023.78;;;12.67;34.74
72857;BME280;62742;52.136;4.500;2023-04-04T10:58:46;103023.16;;;12.16;35.39
72857;BME280;62742;52.136;4.500;2023-04-04T11:01:14;103025.22;;;12.41;35.72
72857;BME280;62742;52.136;4.500;2023-04-04T11:04:14;103023.38;;;12.32;33.93
72857;BME280;62742;52.136;4.500;2023-04-04T11:09:53;103020.13;;;13.45;35.09
72857;BME280;62742;52.136;4.500;2023-04-04T11:12:30;103012.59;;;12.91;32.85
72857;BME280;62742;52.136;4.500;2023-04-04T11:15:07;103013.63;;;13.09;35.22
72857;BME280;62742;52.136;4.500;2023-04-04T11:17:41;103015.03;;;13.74;35.06
72857;BME280;62742;52.136;4.500;2023-04-04T11:20:14;103001.88;;;13.79;34.31
72857;BME280;62742;52.136;4.500;2023-04-04T11:22:42;103002.19;;;13.10;32.88
72857;BME280;62742;52.136;4.500;2023-04-04T11:25:30;103014.63;;;13.20;33.13
72857;BME280;62742;52.136;4.500;2023-04-04T11:27:57;103007.56;;;12.32;33.42
72857;BME280;62742;52.136;4.500;2023-04-04T11:30:24;102999.16;;;11.95;36.07
72857;BME280;62742;52.136;4.500;2023-04-04T11:32:55;102996.72;;;11.51;38.00
72857;BME280;62742;52.136;4.500;2023-04-04T11:35:25;102999.16;;;11.95;36.06
72857;BME280;62742;52.136;4.500;2023-04-04T11:40:19;103007.25;;;11.51;33.60
72857;BME280;62742;52.136;4.500;2023-04-04T11:42:50;103000.97;;;11.97;35.49
72857;BME280;62742;52.136;4.500;2023-04-04T11:45:20;102991.88;;;11.80;35.25
72857;BME280;62742;52.136;4.500;2023-04-04T11:47:50;102990.44;;;11.99;37.85
72857;BME280;62742;52.136;4.500;2023-04-04T11:50:17;102980.56;;;12.54;36.92
72857;BME280;62742;52.136;4.500;2023-04-04T11:52:45;102980.16;;;13.02;34.89
72857;BME280;62742;52.136;4.500;2023-04-04T11:55:15;102975.31;;;13.57;38.04
72857;BME280;62742;52.136;4.500;2023-04-04T11:57:45;102974.56;;;13.80;33.79
72857;BME280;62742;52.136;4.500;2023-04-04T12:00:27;102981.38;;;13.44;35.36
72857;BME280;62742;52.136;4.500;2023-04-04T12:03:07;102975.91;;;13.22;35.01
72857;BME280;62742;52.136;4.500;2023-04-04T12:05:38;102973.06;;;12.98;37.10
72857;BME280;62742;52.136;4.500;2023-04-04T12:08:07;102970.66;;;13.24;34.87
72857;BME280;62742;52.136;4.500;2023-04-04T12:10:37;102970.00;;;13.56;34.39
72857;BME280;62742;52.136;4.500;2023-04-04T12:13:05;102960.53;;;13.93;34.93
72857;BME280;62742;52.136;4.500;2023-04-04T12:15:34;102963.22;;;14.07;35.67
72857;BME280;62742;52.136;4.500;2023-04-04T12:18:02;102964.88;;;13.80;33.80
72857;BME280;62742;52.136;4.500;2023-04-04T12:20:31;102964.19;;;12.88;30.95
72857;BME280;62742;52.136;4.500;2023-04-04T12:22:58;102961.88;;;13.29;30.94
72857;BME280;62742;52.136;4.500;2023-04-04T12:25:24;102954.81;;;13.28;32.70
72857;BME280;62742;52.136;4.500;2023-04-04T12:27:53;102953.34;;;13.68;31.14
72857;BME280;62742;52.136;4.500;2023-04-04T12:30:21;102953.78;;;13.03;32.86
72857;BME280;62742;52.136;4.500;2023-04-04T12:32:47;102951.59;;;13.65;34.07
72857;BME280;62742;52.136;4.500;2023-04-04T12:35:15;102949.47;;;13.16;33.43
72857;BME280;62742;52.136;4.500;2023-04-04T12:40:32;102945.97;;;13.23;33.03
72857;BME280;62742;52.136;4.500;2023-04-04T12:43:07;102939.88;;;13.29;32.35
72857;BME280;62742;52.136;4.500;2023-04-04T12:45:38;102934.06;;;13.90;32.66
72857;BME280;62742;52.136;4.500;2023-04-04T12:48:08;102938.97;;;13.28;31.74
72857;BME280;62742;52.136;4.500;2023-04-04T12:50:54;102919.97;;;13.82;33.79
72857;BME280;62742;52.136;4.500;2023-04-04T12:53:25;102919.22;;;14.29;34.46
72857;BME280;62742;52.136;4.500;2023-04-04T12:55:53;102917.56;;;14.61;34.70
72857;BME280;62742;52.136;4.500;2023-04-04T12:58:22;102920.94;;;14.10;33.63
72857;BME280;62742;52.136;4.500;2023-04-04T13:00:52;102911.19;;;13.89;32.55
72857;BME280;62742;52.136;4.500;2023-04-04T13:03:20;102916.47;;;13.97;34.35
72857;BME280;62742;52.136;4.500;2023-04-04T13:05:49;102918.13;;;13.65;33.79
72857;BME280;62742;52.136;4.500;2023-04-04T13:08:19;102906.50;;;13.37;32.48
72857;BME280;62742;52.136;4.500;2023-04-04T13:13:30;102903.03;;;12.37;34.98
72857;BME280;62742;52.136;4.500;2023-04-04T13:15:57;102887.28;;;12.46;34.72